createdAt,value
2022-08-08T00:02:30.209Z,96559.06
2022-08-08T00:04:49.121Z,96548.59
2022-08-08T00:07:21.332Z,96555.41
2022-08-08T00:09:57.422Z,96560.28
2022-08-08T00:12:36.164Z,96552.53
2022-08-08T00:15:10.262Z,96540.19
2022-08-08T00:17:58.380Z,96559.88
2022-08-08T00:20:37.102Z,96546.50
2022-08-08T00:23:08.291Z,96559.72
2022-08-08T00:25:46.219Z,96556.31
2022-08-08T00:28:35.580Z,96564.63
2022-08-08T00:32:20.362Z,96566.03
2022-08-08T00:34:34.887Z,96555.09
2022-08-08T00:37:44.769Z,96561.50
2022-08-08T00:41:09.359Z,96561.50
2022-08-08T00:43:19.797Z,96567.91
2022-08-08T00:46:21.348Z,96559.94
2022-08-08T00:49:22.178Z,96554.75
2022-08-08T00:52:19.438Z,96554.59
2022-08-08T00:55:11.377Z,96561.84
2022-08-08T00:58:31.923Z,96555.19
2022-08-08T01:01:12.053Z,96566.34
2022-08-08T01:04:29.674Z,96554.00
2022-08-08T01:07:54.729Z,96556.81
2022-08-08T01:11:07.935Z,96551.72
2022-08-08T01:14:08.529Z,96549.66
2022-08-08T01:17:12.000Z,96541.34
2022-08-08T01:20:35.068Z,96545.63
2022-08-08T01:24:02.882Z,96533.97
2022-08-08T01:26:17.581Z,96537.44
2022-08-08T01:29:16.484Z,96538.06
2022-08-08T01:32:16.184Z,96542.00
2022-08-08T01:35:11.806Z,96541.34
2022-08-08T01:38:12.165Z,96518.56
2022-08-08T01:40:46.709Z,96543.19
2022-08-08T01:43:26.919Z,96543.19
2022-08-08T01:46:10.226Z,96531.56
2022-08-08T01:48:51.219Z,96502.81
2022-08-08T01:52:30.675Z,96533.13
2022-08-08T01:55:19.617Z,96535.28
2022-08-08T01:58:12.139Z,96529.66
2022-08-08T02:00:25.445Z,96528.16
2022-08-08T02:03:56.019Z,96521.00
2022-08-08T02:06:09.427Z,96519.72
2022-08-08T02:09:15.868Z,96522.16
2022-08-08T02:11:59.116Z,96522.78
2022-08-08T02:14:35.095Z,96505.78
2022-08-08T02:17:36.540Z,96530.63
2022-08-08T02:21:01.397Z,96526.91
2022-08-08T02:23:16.228Z,96531.53
2022-08-08T02:25:52.841Z,96520.13
2022-08-08T02:28:35.281Z,96526.09
2022-08-08T02:31:43.172Z,96523.50
2022-08-08T02:34:09.081Z,96519.66
2022-08-08T02:36:44.522Z,96526.97
2022-08-08T02:39:42.432Z,96532.78
2022-08-08T02:42:45.323Z,96537.06
2022-08-08T02:45:51.530Z,96539.50
2022-08-08T02:48:57.396Z,96535.00
2022-08-08T02:51:58.618Z,96546.03
2022-08-08T02:54:50.220Z,96544.22
2022-08-08T02:57:55.973Z,96543.13
2022-08-08T03:00:33.671Z,96545.88
2022-08-08T03:05:00.554Z,96543.78
2022-08-08T03:07:07.431Z,96547.69
2022-08-08T03:10:01.976Z,96551.63
2022-08-08T03:15:53.995Z,96554.16
2022-08-08T03:16:35.808Z,96557.16
2022-08-08T03:19:39.612Z,96557.16
2022-08-08T03:22:37.717Z,96562.66
2022-08-08T03:25:17.868Z,96562.34
2022-08-08T03:27:56.309Z,96547.94
2022-08-08T03:30:26.409Z,96553.34
2022-08-08T03:33:55.468Z,96547.34
2022-08-08T03:36:01.418Z,96563.03
2022-08-08T03:38:57.649Z,96561.31
2022-08-08T03:42:12.466Z,96522.16
2022-08-08T03:44:08.296Z,96542.66
2022-08-08T03:46:47.188Z,96564.44
2022-08-08T03:49:57.219Z,96570.84
2022-08-08T03:52:13.216Z,96562.31
2022-08-08T03:55:01.755Z,96561.47
2022-08-08T03:58:31.182Z,96573.00
2022-08-08T04:00:26.179Z,96573.25
2022-08-08T04:03:00.546Z,96570.06
2022-08-08T04:05:31.659Z,96574.19
2022-08-08T04:08:01.490Z,96572.28
2022-08-08T04:10:32.074Z,96579.72
2022-08-08T04:13:17.133Z,96586.56
2022-08-08T04:15:54.967Z,96583.31
2022-08-08T04:18:41.810Z,96576.84
2022-08-08T04:21:13.017Z,96583.38
2022-08-08T04:24:12.184Z,96582.84
2022-08-08T04:26:35.521Z,96559.09
2022-08-08T04:29:15.325Z,96542.28
2022-08-08T04:31:59.531Z,96582.31
2022-08-08T04:34:31.804Z,96560.19
2022-08-08T04:37:01.062Z,96574.94
2022-08-08T04:40:03.167Z,96579.69
2022-08-08T04:42:20.632Z,96550.88
2022-08-08T04:44:55.664Z,96577.47
2022-08-08T04:47:24.530Z,96556.13
2022-08-08T04:49:58.575Z,96564.16
2022-08-08T04:52:34.314Z,96603.13
2022-08-08T04:55:04.196Z,96596.00
2022-08-08T04:57:34.405Z,96595.41
2022-08-08T05:00:08.224Z,96604.81
2022-08-08T05:02:40.279Z,96599.97
2022-08-08T05:05:20.031Z,96604.91
2022-08-08T05:07:50.025Z,96605.53
2022-08-08T05:10:19.771Z,96612.66
2022-08-08T05:12:59.987Z,96587.94
2022-08-08T05:16:54.854Z,96584.38
2022-08-08T05:18:20.183Z,96580.53
2022-08-08T05:20:52.252Z,96594.53
2022-08-08T05:23:22.087Z,96603.03
2022-08-08T05:25:51.629Z,96617.22
2022-08-08T05:28:48.360Z,96619.38
2022-08-08T05:32:02.202Z,96611.94
2022-08-08T05:34:00.007Z,96589.38
2022-08-08T05:36:28.408Z,96620.22
2022-08-08T05:38:58.919Z,96608.84
2022-08-08T05:41:28.249Z,96616.34
2022-08-08T05:44:03.254Z,96593.25
2022-08-08T05:46:34.372Z,96637.00
2022-08-08T05:49:10.321Z,96635.59
2022-08-08T05:51:48.949Z,96634.00
2022-08-08T05:54:42.892Z,96647.38
2022-08-08T05:57:08.741Z,96647.22
2022-08-08T05:59:59.589Z,96654.16
2022-08-08T06:02:48.103Z,96656.59
2022-08-08T06:05:34.121Z,96662.94
2022-08-08T06:08:10.379Z,96660.34
2022-08-08T06:11:08.244Z,96658.09
2022-08-08T06:13:47.087Z,96640.78
2022-08-08T06:16:16.647Z,96665.41
2022-08-08T06:18:50.257Z,96626.75
2022-08-08T06:21:32.440Z,96667.63
2022-08-08T06:24:13.776Z,96667.66
2022-08-08T06:26:57.111Z,96666.25
2022-08-08T06:29:59.347Z,96670.84
2022-08-08T06:32:22.992Z,96639.00
2022-08-08T06:35:12.106Z,96676.91
2022-08-08T06:37:50.849Z,96667.19
2022-08-08T06:40:32.135Z,96680.53
2022-08-08T06:43:06.546Z,96683.78
2022-08-08T06:45:39.354Z,96663.25
2022-08-08T06:48:10.023Z,96658.72
2022-08-08T06:50:39.991Z,96679.34
2022-08-08T06:53:17.440Z,96677.56
2022-08-08T06:56:02.550Z,96681.09
2022-08-08T06:58:33.684Z,96683.00
2022-08-08T07:01:24.340Z,96685.56
2022-08-08T07:04:41.592Z,96689.44
2022-08-08T07:06:51.853Z,96680.16
2022-08-08T07:09:21.937Z,96690.09
2022-08-08T07:11:56.511Z,96686.84
2022-08-08T07:14:28.557Z,96674.00
2022-08-08T07:17:03.180Z,96651.06
2022-08-08T07:19:44.653Z,96675.19
2022-08-08T07:22:18.616Z,96686.50
2022-08-08T07:24:54.094Z,96681.16
2022-08-08T07:27:35.142Z,96683.59
2022-08-08T07:30:21.329Z,96690.47
2022-08-08T07:32:54.947Z,96697.00
2022-08-08T07:35:29.442Z,96689.88
2022-08-08T07:38:09.944Z,96695.69
2022-08-08T07:40:49.126Z,96694.75
2022-08-08T07:43:32.366Z,96688.56
2022-08-08T07:46:23.450Z,96691.50
2022-08-08T07:48:57.343Z,96694.28
2022-08-08T07:51:45.240Z,96696.44
2022-08-08T07:54:26.536Z,96696.94
2022-08-08T07:57:01.849Z,96698.88
2022-08-08T07:59:37.716Z,96681.03
2022-08-08T08:02:36.218Z,96692.63
2022-08-08T08:04:58.232Z,96695.56
2022-08-08T08:07:32.206Z,96697.56
2022-08-08T08:10:12.564Z,96701.94
2022-08-08T08:12:43.724Z,96690.75
2022-08-08T08:15:15.201Z,96685.53
2022-08-08T08:17:48.136Z,96696.16
2022-08-08T08:20:19.323Z,96678.25
2022-08-08T08:22:49.045Z,96701.19
2022-08-08T08:25:43.177Z,96671.91
2022-08-08T08:28:09.292Z,96709.34
2022-08-08T08:30:39.535Z,96715.66
2022-08-08T08:33:11.195Z,96709.97
2022-08-08T08:36:17.952Z,96710.16
2022-08-08T08:38:28.801Z,96707.38
2022-08-08T08:40:58.828Z,96700.53
2022-08-08T08:43:29.089Z,96714.50
2022-08-08T08:45:58.761Z,96711.25
2022-08-08T08:48:32.785Z,96716.91
2022-08-08T08:51:03.342Z,96718.31
2022-08-08T08:53:56.667Z,96708.53
2022-08-08T08:56:26.350Z,96719.75
2022-08-08T08:58:57.965Z,96712.09
2022-08-08T09:01:29.047Z,96718.09
2022-08-08T09:04:03.177Z,96719.03
2022-08-08T09:06:40.502Z,96697.41
2022-08-08T09:09:35.027Z,96710.38
2022-08-08T09:12:11.659Z,96707.50
2022-08-08T09:14:42.487Z,96720.28
2022-08-08T09:17:17.299Z,96695.03
2022-08-08T09:22:02.431Z,96725.56
2022-08-08T09:22:36.021Z,96722.59
2022-08-08T09:25:06.105Z,96721.00
2022-08-08T09:27:57.607Z,96721.31
2022-08-08T09:30:28.022Z,96726.63
2022-08-08T09:33:54.911Z,96727.28
2022-08-08T09:35:49.399Z,96721.78
2022-08-08T09:38:31.847Z,96735.16
2022-08-08T09:41:05.511Z,96732.44
2022-08-08T09:44:05.396Z,96723.47
2022-08-08T09:46:36.371Z,96694.97
2022-08-08T09:49:40.945Z,96705.91
2022-08-08T09:52:06.246Z,96716.84
2022-08-08T09:54:44.076Z,96710.91
2022-08-08T09:57:16.905Z,96699.69
2022-08-08T10:00:14.752Z,96705.97
2022-08-08T10:02:40.590Z,96697.06
2022-08-08T10:05:14.535Z,96693.50
2022-08-08T10:07:47.960Z,96670.81
2022-08-08T10:10:17.052Z,96696.63
2022-08-08T10:12:53.895Z,96699.00
2022-08-08T10:15:39.453Z,96694.00
2022-08-08T10:18:10.624Z,96706.44
2022-08-08T10:20:57.823Z,96702.16
2022-08-08T10:23:44.046Z,96697.38
2022-08-08T10:26:25.862Z,96695.69
2022-08-08T10:29:06.042Z,96702.81
2022-08-08T10:31:54.972Z,96697.59
2022-08-08T10:34:27.270Z,96698.81
2022-08-08T10:36:59.890Z,96690.00
2022-08-08T10:39:31.665Z,96692.56
2022-08-08T10:42:27.226Z,96684.44
2022-08-08T10:45:02.723Z,96695.56
2022-08-08T10:47:43.737Z,96683.75
2022-08-08T10:50:16.689Z,96684.13
2022-08-08T10:52:45.208Z,96678.16
2022-08-08T10:55:15.620Z,96635.03
2022-08-08T10:58:05.975Z,96686.59
2022-08-08T11:00:53.204Z,96679.94
2022-08-08T11:03:37.117Z,96682.91
2022-08-08T11:06:17.862Z,96682.41
2022-08-08T11:08:53.075Z,96673.47
2022-08-08T11:11:32.246Z,96636.69
2022-08-08T11:14:16.039Z,96677.44
2022-08-08T11:16:46.533Z,96646.66
2022-08-08T11:19:18.039Z,96665.00
2022-08-08T11:21:55.204Z,96665.88
2022-08-08T11:24:26.970Z,96662.47
2022-08-08T11:26:57.459Z,96658.16
2022-08-08T11:29:41.458Z,96649.25
2022-08-08T11:32:17.373Z,96646.22
2022-08-08T11:38:34.616Z,96649.69
2022-08-08T11:40:26.481Z,96652.16
2022-08-08T11:42:56.266Z,96649.47
2022-08-08T11:45:24.792Z,96647.66
2022-08-08T11:48:04.826Z,96645.44
2022-08-08T11:50:35.387Z,96649.47
2022-08-08T11:53:06.038Z,96645.44
2022-08-08T11:55:36.745Z,96652.38
2022-08-08T11:58:15.278Z,96650.47
2022-08-08T12:00:48.478Z,96653.38
2022-08-08T12:03:20.793Z,96661.69
2022-08-08T12:05:52.090Z,96662.31
2022-08-08T12:08:32.153Z,96666.69
2022-08-08T12:11:02.448Z,96634.44
2022-08-08T12:13:38.287Z,96652.88
2022-08-08T12:16:31.818Z,96627.88
2022-08-08T12:19:12.471Z,96650.53
2022-08-08T12:21:59.513Z,96661.50
2022-08-08T12:24:30.795Z,96670.19
2022-08-08T12:26:59.336Z,96668.97
2022-08-08T12:29:40.421Z,96663.81
2022-08-08T12:32:20.389Z,96661.38
2022-08-08T12:35:13.274Z,96668.28
2022-08-08T12:38:02.113Z,96668.66
2022-08-08T12:40:54.344Z,96672.63
2022-08-08T12:43:43.890Z,96678.88
2022-08-08T12:46:25.998Z,96676.22
2022-08-08T12:49:22.177Z,96673.72
2022-08-08T12:51:50.194Z,96671.81
2022-08-08T12:54:25.727Z,96676.72
2022-08-08T12:56:54.405Z,96664.41
2022-08-08T12:59:27.236Z,96669.53
2022-08-08T13:02:04.736Z,96669.13
2022-08-08T13:04:34.968Z,96638.09
2022-08-08T13:07:07.079Z,96647.47
2022-08-08T13:09:57.713Z,96682.81
2022-08-08T13:12:34.081Z,96667.75
2022-08-08T13:15:05.755Z,96646.63
2022-08-08T13:17:53.834Z,96672.50
2022-08-08T13:20:27.284Z,96677.84
2022-08-08T13:25:58.724Z,96675.59
2022-08-08T13:28:33.085Z,96673.22
2022-08-08T13:31:03.994Z,96671.41
2022-08-08T13:33:41.914Z,96675.03
2022-08-08T13:36:13.744Z,96667.84
2022-08-08T13:38:42.425Z,96667.84
2022-08-08T13:41:16.199Z,96669.63
2022-08-08T13:43:47.252Z,96666.59
2022-08-08T13:46:27.443Z,96663.59
2022-08-08T13:50:33.563Z,96634.34
2022-08-08T13:51:56.132Z,96668.53
2022-08-08T13:54:29.543Z,96663.28
2022-08-08T13:57:08.705Z,96673.94
2022-08-08T13:59:48.057Z,96667.53
2022-08-08T14:02:20.571Z,96673.94
2022-08-08T14:04:56.925Z,96677.09
2022-08-08T14:07:29.875Z,96679.41
2022-08-08T14:10:11.612Z,96650.16
2022-08-08T14:12:47.334Z,96655.41
2022-08-08T14:15:31.249Z,96657.56
2022-08-08T14:18:37.050Z,96648.25
2022-08-08T14:21:03.455Z,96648.69
2022-08-08T14:24:08.106Z,96660.31
2022-08-08T14:26:30.258Z,96647.56
2022-08-08T14:29:06.196Z,96655.16
2022-08-08T14:32:08.933Z,96658.56
2022-08-08T14:34:38.111Z,96643.19
2022-08-08T14:37:08.604Z,96632.84
2022-08-08T14:39:48.399Z,96653.72
2022-08-08T14:42:17.669Z,96652.75
2022-08-08T14:45:01.383Z,96640.31
2022-08-08T14:47:36.552Z,96643.63
2022-08-08T14:50:21.282Z,96647.13
2022-08-08T14:53:04.621Z,96646.41
2022-08-08T14:55:41.901Z,96647.25
2022-08-08T14:58:16.811Z,96652.00
2022-08-08T15:00:50.399Z,96612.59
2022-08-08T15:03:20.289Z,96650.66
2022-08-08T15:05:53.194Z,96645.69
2022-08-08T15:08:34.253Z,96646.97
2022-08-08T15:11:06.546Z,96647.63
2022-08-08T15:13:40.658Z,96646.63
2022-08-08T15:16:24.636Z,96642.47
2022-08-08T15:18:52.840Z,96638.69
2022-08-08T15:21:21.559Z,96620.19
2022-08-08T15:23:51.091Z,96651.72
2022-08-08T15:26:20.527Z,96627.44
2022-08-08T15:28:53.024Z,96656.56
2022-08-08T15:31:55.597Z,96655.06
2022-08-08T15:34:18.480Z,96656.34
2022-08-08T15:36:57.877Z,96645.38
2022-08-08T15:39:26.110Z,96655.56
2022-08-08T15:41:55.260Z,96646.38
2022-08-08T15:44:23.369Z,96658.13
2022-08-08T15:46:51.828Z,96655.81
2022-08-08T15:49:22.290Z,96649.91
2022-08-08T15:51:54.414Z,96652.63
2022-08-08T15:54:38.101Z,96648.00
2022-08-08T15:57:08.827Z,96643.59
2022-08-08T16:00:06.703Z,96647.19
2022-08-08T16:02:31.128Z,96642.44
2022-08-08T16:05:02.238Z,96643.91
2022-08-08T16:07:39.216Z,96648.59
2022-08-08T16:13:04.686Z,96637.66
2022-08-08T16:13:32.076Z,96649.53
2022-08-08T16:16:09.218Z,96618.69
2022-08-08T16:18:42.466Z,96649.09
2022-08-08T16:21:26.379Z,96649.91
2022-08-08T16:23:56.278Z,96621.63
2022-08-08T16:26:32.881Z,96642.50
2022-08-08T16:29:08.263Z,96651.38
2022-08-08T16:31:40.951Z,96644.78
2022-08-08T16:34:10.509Z,96642.22
2022-08-08T16:36:41.034Z,96656.28
2022-08-08T16:39:27.807Z,96654.03
2022-08-08T16:42:01.301Z,96648.44
2022-08-08T16:44:34.311Z,96645.00
2022-08-08T16:47:31.448Z,96645.34
2022-08-08T16:50:01.453Z,96644.72
2022-08-08T16:55:02.811Z,96640.25
2022-08-08T16:55:42.865Z,96628.81
2022-08-08T16:58:14.659Z,96622.31
2022-08-08T17:00:49.147Z,96646.81
2022-08-08T17:03:24.811Z,96642.28
2022-08-08T17:06:04.020Z,96658.91
2022-08-08T17:08:37.637Z,96659.34
2022-08-08T17:11:11.193Z,96605.69
2022-08-08T17:13:49.815Z,96664.09
2022-08-08T17:16:22.062Z,96661.56
2022-08-08T17:18:51.125Z,96668.75
2022-08-08T17:21:21.429Z,96662.25
2022-08-08T17:24:00.949Z,96663.94
2022-08-08T17:26:31.828Z,96680.09
2022-08-08T17:29:04.135Z,96680.94
2022-08-08T17:31:44.643Z,96677.91
2022-08-08T17:34:36.438Z,96682.06
2022-08-08T17:37:06.445Z,96688.28
2022-08-08T17:40:03.887Z,96696.50
2022-08-08T17:42:27.125Z,96704.06
2022-08-08T17:44:57.630Z,96703.16
2022-08-08T17:47:28.159Z,96705.75
2022-08-08T17:50:01.014Z,96702.50
2022-08-08T17:52:31.422Z,96715.69
2022-08-08T17:56:03.256Z,96719.72
2022-08-08T17:57:54.108Z,96722.00
2022-08-08T18:00:30.085Z,96723.94
2022-08-08T18:03:07.543Z,96727.53
2022-08-08T18:05:48.315Z,96737.28
2022-08-08T18:08:25.389Z,96729.13
2022-08-08T18:11:09.126Z,96730.06
2022-08-08T18:13:41.349Z,96710.84
2022-08-08T18:16:11.453Z,96740.13
2022-08-08T18:18:42.893Z,96741.53
2022-08-08T18:21:34.694Z,96742.78
2022-08-08T18:24:17.255Z,96740.97
2022-08-08T18:26:53.781Z,96744.47
2022-08-08T18:29:27.326Z,96742.78
2022-08-08T18:31:58.095Z,96749.47
2022-08-08T18:34:27.630Z,96750.41
2022-08-08T18:37:00.682Z,96750.56
2022-08-08T18:39:36.341Z,96737.16
2022-08-08T18:42:13.679Z,96751.69
2022-08-08T18:44:56.065Z,96754.44
2022-08-08T18:47:26.805Z,96753.41
2022-08-08T18:49:58.678Z,96755.25
2022-08-08T18:52:30.472Z,96767.53
2022-08-08T18:55:09.826Z,96761.84
2022-08-08T18:57:44.553Z,96745.47
2022-08-08T19:00:16.591Z,96775.13
2022-08-08T19:02:55.161Z,96781.56
2022-08-08T19:05:31.987Z,96783.22
2022-08-08T19:08:23.903Z,96781.75
2022-08-08T19:10:53.021Z,96785.31
2022-08-08T19:13:24.497Z,96779.59
2022-08-08T19:15:55.761Z,96788.34
2022-08-08T19:18:33.416Z,96791.63
2022-08-08T19:21:30.318Z,96783.78
2022-08-08T19:23:59.787Z,96780.34
2022-08-08T19:26:30.109Z,96790.56
2022-08-08T19:29:01.076Z,96791.41
2022-08-08T19:31:31.567Z,96779.53
2022-08-08T19:34:30.260Z,96797.09
2022-08-08T19:36:55.404Z,96804.88
2022-08-08T19:39:34.960Z,96792.63
2022-08-08T19:42:04.942Z,96764.78
2022-08-08T19:44:43.224Z,96804.53
2022-08-08T19:47:14.440Z,96799.34
2022-08-08T19:49:43.061Z,96804.00
2022-08-08T19:52:13.435Z,96803.19
2022-08-08T19:54:43.241Z,96804.69
2022-08-08T19:57:14.476Z,96801.31
2022-08-08T19:59:45.700Z,96805.78
2022-08-08T20:02:14.511Z,96802.56
2022-08-08T20:04:45.628Z,96798.88
2022-08-08T20:08:27.818Z,96805.13
2022-08-08T20:10:02.772Z,96800.28
2022-08-08T20:12:34.478Z,96797.53
2022-08-08T20:15:14.844Z,96807.88
2022-08-08T20:17:47.752Z,96804.59
2022-08-08T20:20:19.504Z,96815.78
2022-08-08T20:22:52.555Z,96789.06
2022-08-08T20:25:26.380Z,96794.38
2022-08-08T20:28:03.422Z,96801.59
2022-08-08T20:30:56.072Z,96764.00
2022-08-08T20:35:57.007Z,96800.91
2022-08-08T20:38:32.611Z,96802.13
2022-08-08T20:41:05.766Z,96792.06
2022-08-08T20:43:49.187Z,96794.50
2022-08-08T20:46:25.518Z,96793.13
2022-08-08T20:48:58.183Z,96775.56
2022-08-08T20:51:31.748Z,96797.56
2022-08-08T20:54:14.362Z,96791.44
2022-08-08T20:57:04.029Z,96798.22
2022-08-08T20:59:41.381Z,96792.13
2022-08-08T21:02:12.868Z,96792.34
2022-08-08T21:04:47.767Z,96751.38
2022-08-08T21:07:47.624Z,96784.03
2022-08-08T21:10:12.782Z,96791.50
2022-08-08T21:12:44.612Z,96788.94
2022-08-08T21:15:16.398Z,96747.44
2022-08-08T21:18:04.635Z,96781.34
2022-08-08T21:20:34.545Z,96778.88
2022-08-08T21:23:03.458Z,96774.34
2022-08-08T21:25:37.375Z,96773.03
2022-08-08T21:28:15.769Z,96793.22
2022-08-08T21:30:45.315Z,96784.66
2022-08-08T21:33:21.956Z,96787.09
2022-08-08T21:36:19.182Z,96790.97
2022-08-08T21:38:38.351Z,96792.63
2022-08-08T21:41:07.222Z,96760.31
2022-08-08T21:43:36.445Z,96791.66
2022-08-08T21:48:07.693Z,96793.97
2022-08-08T21:48:56.087Z,96788.09
2022-08-08T21:54:31.836Z,96795.34
2022-08-08T21:54:32.789Z,96803.22
2022-08-08T21:57:07.262Z,96795.97
2022-08-08T22:00:02.600Z,96798.41
2022-08-08T22:02:24.167Z,96803.28
2022-08-08T22:04:55.668Z,96807.19
2022-08-08T22:07:39.397Z,96805.56
2022-08-08T22:10:10.051Z,96800.34
2022-08-08T22:12:47.385Z,96811.78
2022-08-08T22:15:15.699Z,96806.19
2022-08-08T22:17:45.430Z,96815.34
2022-08-08T22:20:18.835Z,96805.13
2022-08-08T22:22:52.668Z,96800.59
2022-08-08T22:25:25.841Z,96811.06
2022-08-08T22:28:03.141Z,96812.31
2022-08-08T22:30:33.581Z,96814.22
2022-08-08T22:33:02.032Z,96820.50
2022-08-08T22:36:04.510Z,96811.44
2022-08-08T22:38:21.182Z,96813.91
2022-08-08T22:40:50.435Z,96806.53
2022-08-08T22:43:18.954Z,96817.31
2022-08-08T22:45:52.758Z,96813.78
2022-08-08T22:48:22.531Z,96781.06
2022-08-08T22:50:54.736Z,96819.38
2022-08-08T22:54:31.045Z,96814.63
2022-08-08T22:56:12.346Z,96813.44
2022-08-08T22:58:42.255Z,96815.50
2022-08-08T23:01:30.213Z,96818.91
2022-08-08T23:04:00.944Z,96821.75
2022-08-08T23:06:30.528Z,96795.41
2022-08-08T23:09:00.141Z,96827.69
2022-08-08T23:11:30.927Z,96829.94
2022-08-08T23:14:18.912Z,96825.59
2022-08-08T23:16:57.652Z,96820.41
2022-08-08T23:19:27.838Z,96832.13
2022-08-08T23:22:04.178Z,96827.94
2022-08-08T23:24:36.176Z,96816.63
2022-08-08T23:27:05.809Z,96821.78
2022-08-08T23:29:34.116Z,96824.97
2022-08-08T23:32:04.409Z,96826.53
2022-08-08T23:34:33.106Z,96821.19
2022-08-08T23:37:04.311Z,96826.09
2022-08-08T23:39:42.243Z,96837.13
2022-08-08T23:42:17.886Z,96825.16
2022-08-08T23:44:49.813Z,96825.50
2022-08-08T23:49:05.982Z,96829.69
2022-08-08T23:50:29.938Z,96822.78
2022-08-08T23:53:03.553Z,96830.25
2022-08-08T23:55:38.301Z,96826.97
2022-08-08T23:58:37.702Z,96836.25
